createdAt,value
2017-12-05T00:00:04.184Z,0
2017-12-05T00:05:02.821Z,0
2017-12-05T00:10:02.951Z,0
2017-12-05T00:15:02.524Z,0
2017-12-05T00:20:03.113Z,0
2017-12-05T00:25:02.576Z,0
2017-12-05T00:30:03.063Z,0
2017-12-05T00:35:02.564Z,0
2017-12-05T00:40:03.100Z,0
2017-12-05T00:45:02.601Z,0
2017-12-05T00:50:03.217Z,0
2017-12-05T00:55:02.707Z,0
2017-12-05T01:00:03.360Z,0
2017-12-05T01:05:03.028Z,0
2017-12-05T01:10:02.524Z,0
2017-12-05T01:15:02.987Z,0
2017-12-05T01:20:02.482Z,0
2017-12-05T01:25:02.924Z,0
2017-12-05T01:30:03.330Z,0
2017-12-05T01:35:02.873Z,0
2017-12-05T01:40:02.565Z,0
2017-12-05T01:45:03.037Z,0
2017-12-05T01:50:02.611Z,0
2017-12-05T01:55:03.168Z,0
2017-12-05T02:00:02.658Z,0
2017-12-05T02:05:03.182Z,0
2017-12-05T02:10:02.612Z,0
2017-12-05T02:15:03.151Z,0
2017-12-05T02:20:02.573Z,0
2017-12-05T02:25:03.054Z,0
2017-12-05T02:30:02.523Z,0
2017-12-05T02:35:03.174Z,0
2017-12-05T02:40:02.700Z,0
2017-12-05T02:45:03.206Z,0
2017-12-05T02:50:02.698Z,0
2017-12-05T02:55:03.326Z,0
2017-12-05T03:00:02.930Z,0
2017-12-05T03:05:03.378Z,0
2017-12-05T03:10:02.954Z,0
2017-12-05T03:15:02.508Z,0
2017-12-05T03:20:03.109Z,0
2017-12-05T03:25:02.702Z,0
2017-12-05T03:30:03.307Z,0
2017-12-05T03:35:02.711Z,0
2017-12-05T03:40:03.289Z,0
2017-12-05T03:45:02.762Z,0
2017-12-05T03:50:03.334Z,0
2017-12-05T03:55:02.920Z,0
2017-12-05T04:00:02.517Z,0
2017-12-05T04:05:02.964Z,0
2017-12-05T04:10:02.605Z,0
2017-12-05T04:15:03.098Z,0
2017-12-05T04:20:02.722Z,0
2017-12-05T04:25:03.250Z,0
2017-12-05T04:30:02.673Z,0
2017-12-05T04:35:03.279Z,0
2017-12-05T04:40:02.928Z,0
2017-12-05T04:45:02.534Z,0
2017-12-05T04:50:03.154Z,0
2017-12-05T04:55:02.715Z,0
2017-12-05T05:00:03.164Z,0
2017-12-05T05:05:02.569Z,0
2017-12-05T05:10:03.077Z,0
2017-12-05T05:15:02.628Z,0
2017-12-05T05:20:03.194Z,0
2017-12-05T05:25:02.883Z,0
2017-12-05T05:30:03.178Z,0
2017-12-05T05:35:02.632Z,0
2017-12-05T05:40:03.076Z,0
2017-12-05T05:45:02.491Z,0
2017-12-05T05:50:02.952Z,0
2017-12-05T05:55:03.437Z,0
2017-12-05T06:00:02.930Z,0
2017-12-05T06:05:03.363Z,0
2017-12-05T06:10:02.949Z,0
2017-12-05T06:15:02.652Z,0
2017-12-05T06:20:03.116Z,0
2017-12-05T06:25:02.688Z,0
2017-12-05T06:30:03.291Z,0
2017-12-05T06:35:02.652Z,0
2017-12-05T06:40:03.349Z,0
2017-12-05T06:45:02.790Z,0
2017-12-05T06:50:03.318Z,0
2017-12-05T06:55:02.919Z,1
2017-12-05T07:00:03.390Z,3
2017-12-05T07:05:02.950Z,7
2017-12-05T07:10:02.650Z,10
2017-12-05T07:15:03.020Z,16
2017-12-05T07:20:02.630Z,29
2017-12-05T07:25:03.203Z,33
2017-12-05T07:30:02.612Z,38
2017-12-05T07:35:03.050Z,44
2017-12-05T07:40:02.712Z,53
2017-12-05T07:45:03.152Z,59
2017-12-05T07:50:02.693Z,66
2017-12-05T07:55:03.458Z,69
2017-12-05T08:00:02.881Z,75
2017-12-05T08:05:02.478Z,84
2017-12-05T08:10:03.087Z,88
2017-12-05T08:15:02.725Z,90
2017-12-05T08:20:03.371Z,117
2017-12-05T08:25:02.732Z,171
2017-12-05T08:30:03.491Z,286
2017-12-05T08:35:03.163Z,548
2017-12-05T08:40:02.740Z,603
2017-12-05T08:45:03.370Z,645
2017-12-05T08:50:03.072Z,733
2017-12-05T08:55:02.492Z,633
2017-12-05T09:00:02.860Z,639
2017-12-05T09:05:03.326Z,536
2017-12-05T09:10:02.902Z,538
2017-12-05T09:15:03.355Z,432
2017-12-05T09:20:02.899Z,377
2017-12-05T09:25:03.372Z,778
2017-12-05T09:30:02.805Z,809
2017-12-05T09:35:02.472Z,778
2017-12-05T09:40:03.140Z,806
2017-12-05T09:45:02.591Z,832
2017-12-05T09:50:03.073Z,940
2017-12-05T09:55:02.683Z,1000
2017-12-05T10:00:03.126Z,1000
2017-12-05T10:05:02.614Z,1000
2017-12-05T10:10:03.178Z,1000
2017-12-05T10:15:02.740Z,1000
2017-12-05T10:20:03.345Z,1000
2017-12-05T10:25:02.832Z,1000
2017-12-05T10:30:03.246Z,1000
2017-12-05T10:35:02.866Z,1000
2017-12-05T10:40:02.504Z,1000
2017-12-05T10:45:03.151Z,1000
2017-12-05T10:50:02.731Z,1000
2017-12-05T10:55:03.384Z,1000
2017-12-05T11:00:02.899Z,1000
2017-12-05T11:05:02.487Z,1000
2017-12-05T11:10:03.118Z,1000
2017-12-05T11:15:02.662Z,1000
2017-12-05T11:20:03.263Z,1000
2017-12-05T11:25:02.616Z,1000
2017-12-05T11:30:03.082Z,1000
2017-12-05T11:35:02.655Z,1000
2017-12-05T11:40:03.087Z,1000
2017-12-05T11:45:02.659Z,1000
2017-12-05T11:50:03.082Z,1000
2017-12-05T11:55:02.529Z,1000
2017-12-05T12:00:03.145Z,1000
2017-12-05T12:05:02.772Z,1000
2017-12-05T12:10:03.281Z,1000
2017-12-05T12:15:02.803Z,1000
2017-12-05T12:20:02.713Z,1000
2017-12-05T12:25:02.889Z,1000
2017-12-05T12:30:02.462Z,1000
2017-12-05T12:35:03.045Z,1000
2017-12-05T12:40:02.714Z,1000
2017-12-05T12:50:02.852Z,1000
2017-12-05T12:55:02.493Z,1000
2017-12-05T13:00:03.030Z,989
2017-12-05T13:05:02.635Z,1000
2017-12-05T13:10:03.162Z,1000
2017-12-05T13:15:02.767Z,1000
2017-12-05T13:20:03.343Z,1000
2017-12-05T13:25:02.800Z,933
2017-12-05T13:30:03.240Z,852
2017-12-05T13:35:02.752Z,827
2017-12-05T13:40:03.333Z,854
2017-12-05T13:45:02.980Z,799
2017-12-05T13:50:02.584Z,744
2017-12-05T13:55:03.168Z,731
2017-12-05T14:00:02.689Z,827
2017-12-05T14:05:03.223Z,752
2017-12-05T14:10:02.964Z,750
2017-12-05T14:15:02.582Z,645
2017-12-05T14:20:03.136Z,650
2017-12-05T14:25:02.678Z,589
2017-12-05T14:30:03.128Z,438
2017-12-05T14:35:02.762Z,371
2017-12-05T14:40:03.410Z,329
2017-12-05T14:45:02.838Z,296
2017-12-05T14:50:03.398Z,267
2017-12-05T14:55:02.909Z,216
2017-12-05T15:00:03.390Z,161
2017-12-05T15:05:03.378Z,138
2017-12-05T15:10:02.907Z,80
2017-12-05T15:15:03.351Z,70
2017-12-05T15:20:02.769Z,62
2017-12-05T15:25:03.371Z,55
2017-12-05T15:30:02.826Z,45
2017-12-05T15:35:03.308Z,38
2017-12-05T15:40:02.748Z,28
2017-12-05T15:45:03.297Z,12
2017-12-05T15:50:02.796Z,8
2017-12-05T15:55:03.174Z,5
2017-12-05T16:00:02.704Z,3
2017-12-05T16:05:03.286Z,1
2017-12-05T16:10:02.754Z,0
2017-12-05T16:15:03.348Z,0
2017-12-05T16:20:02.906Z,0
2017-12-05T16:25:03.307Z,0
2017-12-05T16:30:02.821Z,0
2017-12-05T16:35:03.316Z,0
2017-12-05T16:40:02.868Z,0
2017-12-05T16:45:03.285Z,0
2017-12-05T16:50:02.773Z,0
2017-12-05T16:55:03.275Z,0
2017-12-05T17:00:02.892Z,0
2017-12-05T17:05:02.563Z,0
2017-12-05T17:10:03.052Z,0
2017-12-05T17:15:02.725Z,0
2017-12-05T17:20:03.187Z,0
2017-12-05T17:25:02.703Z,0
2017-12-05T17:30:03.190Z,0
2017-12-05T17:35:02.817Z,0
2017-12-05T17:40:03.431Z,0
2017-12-05T17:45:02.981Z,0
2017-12-05T17:50:03.495Z,0
2017-12-05T17:55:02.916Z,0
2017-12-05T18:00:03.339Z,0
2017-12-05T18:05:02.898Z,0
2017-12-05T18:10:02.501Z,0
2017-12-05T18:15:03.134Z,0
2017-12-05T18:20:02.711Z,0
2017-12-05T18:25:03.169Z,0
2017-12-05T18:30:02.756Z,0
2017-12-05T18:35:03.285Z,0
2017-12-05T18:40:02.722Z,0
2017-12-05T18:45:03.314Z,0
2017-12-05T18:50:02.892Z,0
2017-12-05T18:55:03.449Z,0
2017-12-05T19:00:02.878Z,0
2017-12-05T19:05:03.479Z,0
2017-12-05T19:10:02.957Z,0
2017-12-05T19:15:02.480Z,0
2017-12-05T19:20:02.875Z,0
2017-12-05T19:25:02.467Z,0
2017-12-05T19:30:03.019Z,0
2017-12-05T19:35:03.465Z,0
2017-12-05T19:40:03.004Z,0
2017-12-05T19:45:02.536Z,0
2017-12-05T19:50:03.030Z,0
2017-12-05T19:55:02.613Z,0
2017-12-05T20:00:02.983Z,0
2017-12-05T20:05:02.946Z,0
2017-12-05T20:10:03.423Z,0
2017-12-05T20:15:03.034Z,0
2017-12-05T20:25:03.177Z,0
2017-12-05T20:30:02.771Z,0
2017-12-05T20:35:03.366Z,0
2017-12-05T20:40:02.913Z,0
2017-12-05T20:45:02.616Z,0
2017-12-05T20:50:03.207Z,0
2017-12-05T20:55:02.624Z,0
2017-12-05T21:00:03.176Z,0
2017-12-05T21:05:02.630Z,0
2017-12-05T21:10:03.185Z,0
2017-12-05T21:15:02.699Z,0
2017-12-05T21:20:03.231Z,0
2017-12-05T21:25:02.760Z,0
2017-12-05T21:30:03.297Z,0
2017-12-05T21:40:02.526Z,0
2017-12-05T21:45:02.947Z,0
2017-12-05T21:50:02.594Z,0
2017-12-05T21:55:03.058Z,0
2017-12-05T22:00:02.639Z,0
2017-12-05T22:05:03.218Z,0
2017-12-05T22:10:02.852Z,0
2017-12-05T22:15:03.338Z,0
2017-12-05T22:20:02.885Z,0
2017-12-05T22:25:03.262Z,0
2017-12-05T22:30:03.163Z,0
2017-12-05T22:35:02.798Z,0
2017-12-05T22:40:03.401Z,0
2017-12-05T22:45:02.992Z,0
2017-12-05T22:50:02.543Z,0
2017-12-05T22:55:02.977Z,0
2017-12-05T23:00:03.389Z,0
2017-12-05T23:05:02.875Z,0
2017-12-05T23:10:03.398Z,0
2017-12-05T23:15:03.032Z,0
2017-12-05T23:20:02.610Z,0
2017-12-05T23:25:03.081Z,0
2017-12-05T23:30:02.673Z,0
2017-12-05T23:35:03.123Z,0
2017-12-05T23:40:02.789Z,0
2017-12-05T23:45:03.273Z,0
2017-12-05T23:50:02.836Z,0
2017-12-05T23:55:03.376Z,0
